createdAt,value
2022-08-08T00:02:31.187Z,10.49
2022-08-08T00:04:53.097Z,10.44
2022-08-08T00:07:53.241Z,10.39
2022-08-08T00:10:35.477Z,10.30
2022-08-08T00:13:02.088Z,10.26
2022-08-08T00:15:56.602Z,10.22
2022-08-08T00:18:30.329Z,10.20
2022-08-08T00:21:01.964Z,10.13
2022-08-08T00:23:43.226Z,10.09
2022-08-08T00:26:30.114Z,9.98
2022-08-08T00:29:12.651Z,9.93
2022-08-08T00:32:14.992Z,9.91
2022-08-08T00:35:20.384Z,9.83
2022-08-08T00:38:01.520Z,9.77
2022-08-08T00:41:12.532Z,9.79
2022-08-08T00:43:59.179Z,9.76
2022-08-08T00:46:57.252Z,9.70
2022-08-08T00:49:32.184Z,9.70
2022-08-08T00:52:21.505Z,9.69
2022-08-08T00:55:16.787Z,9.65
2022-08-08T00:58:13.526Z,9.56
2022-08-08T01:00:55.972Z,9.47
2022-08-08T01:03:59.583Z,9.45
2022-08-08T01:07:18.008Z,9.41
2022-08-08T01:09:59.280Z,9.41
2022-08-08T01:12:47.051Z,9.34
2022-08-08T01:15:43.557Z,9.26
2022-08-08T01:18:54.819Z,9.26
2022-08-08T01:22:10.101Z,9.19
2022-08-08T01:25:14.352Z,9.06
2022-08-08T01:28:27.754Z,8.98
2022-08-08T01:32:06.814Z,9.03
2022-08-08T01:34:22.580Z,9.08
2022-08-08T01:37:48.015Z,8.98
2022-08-08T01:40:28.171Z,8.84
2022-08-08T01:43:20.736Z,8.84
2022-08-08T01:45:54.411Z,8.81
2022-08-08T01:48:31.488Z,8.80
2022-08-08T01:51:29.852Z,8.77
2022-08-08T01:55:25.600Z,8.71
2022-08-08T01:58:10.728Z,8.61
2022-08-08T02:01:18.922Z,8.56
2022-08-08T02:03:57.445Z,8.47
2022-08-08T02:06:52.878Z,8.46
2022-08-08T02:09:50.223Z,8.44
2022-08-08T02:12:32.444Z,8.38
2022-08-08T02:15:11.371Z,8.44
2022-08-08T02:18:19.612Z,8.41
2022-08-08T02:21:24.409Z,8.33
2022-08-08T02:24:16.273Z,8.40
2022-08-08T02:27:16.781Z,8.41
2022-08-08T02:30:13.071Z,8.39
2022-08-08T02:33:24.920Z,8.39
2022-08-08T02:36:23.667Z,8.34
2022-08-08T02:39:40.482Z,8.40
2022-08-08T02:42:13.717Z,8.47
2022-08-08T02:45:22.172Z,8.40
2022-08-08T02:48:26.073Z,8.29
2022-08-08T02:51:11.694Z,8.26
2022-08-08T02:54:16.864Z,8.34
2022-08-08T02:56:47.828Z,8.23
2022-08-08T02:59:58.394Z,8.18
2022-08-08T03:02:53.353Z,8.09
2022-08-08T03:05:45.334Z,8.08
2022-08-08T03:08:22.368Z,8.00
2022-08-08T03:11:13.836Z,7.96
2022-08-08T03:16:01.306Z,8.00
2022-08-08T03:17:20.153Z,8.02
2022-08-08T03:20:07.802Z,7.97
2022-08-08T03:22:44.464Z,8.00
2022-08-08T03:25:17.955Z,8.02
2022-08-08T03:27:59.381Z,7.95
2022-08-08T03:30:27.085Z,8.03
2022-08-08T03:33:56.196Z,8.14
2022-08-08T03:36:00.569Z,8.10
2022-08-08T03:38:58.247Z,8.10
2022-08-08T03:42:12.420Z,8.08
2022-08-08T03:44:01.677Z,8.06
2022-08-08T03:46:32.649Z,8.11
2022-08-08T03:49:31.016Z,8.13
2022-08-08T03:51:57.205Z,8.12
2022-08-08T03:54:52.579Z,8.17
2022-08-08T03:58:30.246Z,8.13
2022-08-08T04:00:18.332Z,8.07
2022-08-08T04:02:58.775Z,8.13
2022-08-08T04:05:30.536Z,8.17
2022-08-08T04:07:58.940Z,8.16
2022-08-08T04:10:32.223Z,8.21
2022-08-08T04:13:00.482Z,8.25
2022-08-08T04:15:38.428Z,8.34
2022-08-08T04:18:06.312Z,8.40
2022-08-08T04:20:36.624Z,8.48
2022-08-08T04:23:07.717Z,8.55
2022-08-08T04:25:38.437Z,8.58
2022-08-08T04:28:36.358Z,8.60
2022-08-08T04:30:55.348Z,8.64
2022-08-08T04:33:24.597Z,8.75
2022-08-08T04:35:54.032Z,8.77
2022-08-08T04:38:22.921Z,8.81
2022-08-08T04:40:53.368Z,8.84
2022-08-08T04:43:32.257Z,8.93
2022-08-08T04:46:09.613Z,9.07
2022-08-08T04:48:36.213Z,9.20
2022-08-08T04:51:02.873Z,9.32
2022-08-08T04:54:36.046Z,9.44
2022-08-08T04:56:17.654Z,9.57
2022-08-08T04:58:44.643Z,9.70
2022-08-08T05:01:15.150Z,9.80
2022-08-08T05:04:07.956Z,9.89
2022-08-08T05:06:29.494Z,10.02
2022-08-08T05:09:02.647Z,10.12
2022-08-08T05:11:39.257Z,10.21
2022-08-08T05:14:07.520Z,10.26
2022-08-08T05:16:54.507Z,10.29
2022-08-08T05:20:04.243Z,10.28
2022-08-08T05:22:10.334Z,10.39
2022-08-08T05:24:38.421Z,10.46
2022-08-08T05:27:06.288Z,10.53
2022-08-08T05:29:36.079Z,10.59
2022-08-08T05:32:07.361Z,10.64
2022-08-08T05:34:40.893Z,10.73
2022-08-08T05:37:18.665Z,10.81
2022-08-08T05:39:52.802Z,10.86
2022-08-08T05:42:26.298Z,10.90
2022-08-08T05:45:00.445Z,10.99
2022-08-08T05:47:30.037Z,10.97
2022-08-08T05:50:14.315Z,11.07
2022-08-08T05:52:44.079Z,11.20
2022-08-08T05:55:14.299Z,11.33
2022-08-08T05:58:04.037Z,11.44
2022-08-08T06:00:34.034Z,11.48
2022-08-08T06:03:17.215Z,11.54
2022-08-08T06:06:06.591Z,11.60
2022-08-08T06:08:53.330Z,11.69
2022-08-08T06:11:22.625Z,11.77
2022-08-08T06:13:55.164Z,11.88
2022-08-08T06:16:25.070Z,12.07
2022-08-08T06:19:00.382Z,12.20
2022-08-08T06:21:48.449Z,12.36
2022-08-08T06:24:22.970Z,12.51
2022-08-08T06:27:03.625Z,12.64
2022-08-08T06:30:00.836Z,12.75
2022-08-08T06:32:33.750Z,12.85
2022-08-08T06:35:30.705Z,12.96
2022-08-08T06:38:05.185Z,13.11
2022-08-08T06:40:39.999Z,13.25
2022-08-08T06:43:30.717Z,13.41
2022-08-08T06:46:02.456Z,13.51
2022-08-08T06:48:30.322Z,13.61
2022-08-08T06:50:58.411Z,13.69
2022-08-08T06:53:39.317Z,13.80
2022-08-08T06:56:07.933Z,13.92
2022-08-08T06:58:35.557Z,14.03
2022-08-08T07:01:52.431Z,14.13
2022-08-08T07:04:40.234Z,14.17
2022-08-08T07:06:46.967Z,14.27
2022-08-08T07:09:21.219Z,14.38
2022-08-08T07:11:54.943Z,14.48
2022-08-08T07:14:37.649Z,14.58
2022-08-08T07:17:14.130Z,14.71
2022-08-08T07:19:48.187Z,14.83
2022-08-08T07:22:24.743Z,15.06
2022-08-08T07:24:55.101Z,15.20
2022-08-08T07:27:35.440Z,15.31
2022-08-08T07:30:18.108Z,15.36
2022-08-08T07:32:51.924Z,15.49
2022-08-08T07:35:19.596Z,15.66
2022-08-08T07:37:56.532Z,15.82
2022-08-08T07:40:35.717Z,15.87
2022-08-08T07:43:09.227Z,16.00
2022-08-08T07:46:05.565Z,16.08
2022-08-08T07:48:29.616Z,16.17
2022-08-08T07:51:00.965Z,16.24
2022-08-08T07:54:02.223Z,16.31
2022-08-08T07:56:40.747Z,16.38
2022-08-08T07:59:16.277Z,16.51
2022-08-08T08:02:36.323Z,16.56
2022-08-08T08:04:49.170Z,16.63
2022-08-08T08:07:23.830Z,16.64
2022-08-08T08:10:01.411Z,16.68
2022-08-08T08:12:35.439Z,16.76
2022-08-08T08:15:15.120Z,16.84
2022-08-08T08:17:48.623Z,16.92
2022-08-08T08:20:19.044Z,17.01
2022-08-08T08:22:48.913Z,17.08
2022-08-08T08:25:41.000Z,17.14
2022-08-08T08:28:05.200Z,17.20
2022-08-08T08:30:39.675Z,17.25
2022-08-08T08:33:06.512Z,17.37
2022-08-08T08:36:17.742Z,17.39
2022-08-08T08:38:24.713Z,17.40
2022-08-08T08:40:52.574Z,17.46
2022-08-08T08:43:20.749Z,17.53
2022-08-08T08:45:57.186Z,17.61
2022-08-08T08:48:27.457Z,17.67
2022-08-08T08:50:58.233Z,17.78
2022-08-08T08:53:27.415Z,17.82
2022-08-08T08:56:23.925Z,17.89
2022-08-08T08:58:52.428Z,18.05
2022-08-08T09:01:22.506Z,18.03
2022-08-08T09:03:51.654Z,18.10
2022-08-08T09:06:34.148Z,18.22
2022-08-08T09:09:07.470Z,18.30
2022-08-08T09:12:01.468Z,18.39
2022-08-08T09:14:34.009Z,18.52
2022-08-08T09:17:07.099Z,18.61
2022-08-08T09:22:02.433Z,18.61
2022-08-08T09:22:26.884Z,18.58
2022-08-08T09:24:56.268Z,18.64
2022-08-08T09:27:42.160Z,18.69
2022-08-08T09:30:17.549Z,18.69
2022-08-08T09:33:13.125Z,18.74
2022-08-08T09:35:50.289Z,18.68
2022-08-08T09:38:54.222Z,18.68
2022-08-08T09:42:14.221Z,18.77
2022-08-08T09:44:46.765Z,18.89
2022-08-08T09:47:27.652Z,19.03
2022-08-08T09:50:13.589Z,19.01
2022-08-08T09:52:55.853Z,19.07
2022-08-08T09:56:04.920Z,19.09
2022-08-08T09:58:27.648Z,19.17
2022-08-08T10:01:14.512Z,19.24
2022-08-08T10:04:02.402Z,19.35
2022-08-08T10:06:32.865Z,19.29
2022-08-08T10:09:03.107Z,19.36
2022-08-08T10:12:28.181Z,19.37
2022-08-08T10:14:28.173Z,19.34
2022-08-08T10:18:05.392Z,19.38
2022-08-08T10:20:00.138Z,19.37
2022-08-08T10:22:36.026Z,19.46
2022-08-08T10:25:06.308Z,19.51
2022-08-08T10:27:42.777Z,19.59
2022-08-08T10:30:16.343Z,19.71
2022-08-08T10:33:00.373Z,19.83
2022-08-08T10:36:19.807Z,19.86
2022-08-08T10:38:19.802Z,19.95
2022-08-08T10:40:54.023Z,20.03
2022-08-08T10:43:22.215Z,20.09
2022-08-08T10:45:56.411Z,20.12
2022-08-08T10:48:58.394Z,20.15
2022-08-08T10:51:31.310Z,20.18
2022-08-08T10:54:02.513Z,20.15
2022-08-08T10:56:35.587Z,20.18
2022-08-08T10:59:09.575Z,20.27
2022-08-08T11:01:38.358Z,20.30
2022-08-08T11:04:10.648Z,20.39
2022-08-08T11:06:41.711Z,20.51
2022-08-08T11:09:19.461Z,20.53
2022-08-08T11:12:05.099Z,20.45
2022-08-08T11:15:00.541Z,20.43
2022-08-08T11:18:00.336Z,20.43
2022-08-08T11:20:25.009Z,20.42
2022-08-08T11:22:57.245Z,20.42
2022-08-08T11:25:51.657Z,20.47
2022-08-08T11:28:20.153Z,20.52
2022-08-08T11:30:52.034Z,20.59
2022-08-08T11:33:23.232Z,20.73
2022-08-08T11:36:10.019Z,20.73
2022-08-08T11:38:54.690Z,20.75
2022-08-08T11:41:28.212Z,20.78
2022-08-08T11:44:00.550Z,20.79
2022-08-08T11:46:31.423Z,20.81
2022-08-08T11:49:04.767Z,20.84
2022-08-08T11:51:38.983Z,20.87
2022-08-08T11:54:32.040Z,20.82
2022-08-08T11:57:23.693Z,20.80
2022-08-08T12:00:05.371Z,20.93
2022-08-08T12:02:55.573Z,20.97
2022-08-08T12:05:38.444Z,21.07
2022-08-08T12:08:05.513Z,21.11
2022-08-08T12:10:34.521Z,21.12
2022-08-08T12:13:14.293Z,21.11
2022-08-08T12:15:49.256Z,21.15
2022-08-08T12:18:24.883Z,21.16
2022-08-08T12:20:54.968Z,21.21
2022-08-08T12:23:43.692Z,21.22
2022-08-08T12:26:27.862Z,21.23
2022-08-08T12:29:03.147Z,21.27
2022-08-08T12:31:38.671Z,21.24
2022-08-08T12:34:13.308Z,21.22
2022-08-08T12:36:46.430Z,21.20
2022-08-08T12:39:59.861Z,21.28
2022-08-08T12:42:20.630Z,21.26
2022-08-08T12:44:50.249Z,21.00
2022-08-08T12:47:57.838Z,21.03
2022-08-08T12:50:15.081Z,20.95
2022-08-08T12:52:52.789Z,21.00
2022-08-08T12:55:35.696Z,21.00
2022-08-08T12:58:15.732Z,20.92
2022-08-08T13:00:46.231Z,20.91
2022-08-08T13:03:26.341Z,20.85
2022-08-08T13:06:06.750Z,20.85
2022-08-08T13:08:53.662Z,21.00
2022-08-08T13:12:28.247Z,20.99
2022-08-08T13:14:53.175Z,20.82
2022-08-08T13:18:07.754Z,20.77
2022-08-08T13:20:20.369Z,20.68
2022-08-08T13:22:47.663Z,20.78
2022-08-08T13:25:22.080Z,20.81
2022-08-08T13:27:54.492Z,20.93
2022-08-08T13:30:26.644Z,21.06
2022-08-08T13:32:57.217Z,21.06
2022-08-08T13:35:29.616Z,21.08
2022-08-08T13:38:08.342Z,21.09
2022-08-08T13:40:44.720Z,21.11
2022-08-08T13:43:15.902Z,21.14
2022-08-08T13:45:43.607Z,21.07
2022-08-08T13:48:16.828Z,20.91
2022-08-08T13:50:52.389Z,20.75
2022-08-08T13:53:31.485Z,20.68
2022-08-08T13:56:05.315Z,20.91
2022-08-08T13:58:33.089Z,21.17
2022-08-08T14:01:19.486Z,21.44
2022-08-08T14:03:58.376Z,21.59
2022-08-08T14:06:33.114Z,21.66
2022-08-08T14:09:18.539Z,21.58
2022-08-08T14:11:48.987Z,21.56
2022-08-08T14:14:20.918Z,21.43
2022-08-08T14:16:52.912Z,21.55
2022-08-08T14:19:57.887Z,21.82
2022-08-08T14:22:22.211Z,22.15
2022-08-08T14:24:56.403Z,22.39
2022-08-08T14:27:30.548Z,22.58
2022-08-08T14:30:03.404Z,22.66
2022-08-08T14:32:52.749Z,22.88
2022-08-08T14:35:24.752Z,23.15
2022-08-08T14:38:09.447Z,23.32
2022-08-08T14:40:40.486Z,23.45
2022-08-08T14:43:31.441Z,23.49
2022-08-08T14:46:06.032Z,23.63
2022-08-08T14:48:52.213Z,23.80
2022-08-08T14:51:25.562Z,23.90
2022-08-08T14:54:12.372Z,24.02
2022-08-08T14:56:41.208Z,24.13
2022-08-08T14:59:22.455Z,24.19
2022-08-08T15:01:59.625Z,24.28
2022-08-08T15:04:26.532Z,24.39
2022-08-08T15:06:53.218Z,24.57
2022-08-08T15:09:22.550Z,24.75
2022-08-08T15:11:53.011Z,24.79
2022-08-08T15:14:26.639Z,24.78
2022-08-08T15:16:54.089Z,24.77
2022-08-08T15:19:21.350Z,24.73
2022-08-08T15:21:52.628Z,24.68
2022-08-08T15:24:20.526Z,24.78
2022-08-08T15:26:52.629Z,24.99
2022-08-08T15:29:22.492Z,25.12
2022-08-08T15:32:18.001Z,25.06
2022-08-08T15:34:38.804Z,24.99
2022-08-08T15:37:06.825Z,25.07
2022-08-08T15:39:37.454Z,24.99
2022-08-08T15:42:07.059Z,24.96
2022-08-08T15:44:38.486Z,24.95
2022-08-08T15:47:07.381Z,24.88
2022-08-08T15:49:43.937Z,24.73
2022-08-08T15:52:13.933Z,24.66
2022-08-08T15:54:43.753Z,24.70
2022-08-08T15:57:15.568Z,24.71
2022-08-08T16:00:25.889Z,24.60
2022-08-08T16:02:30.881Z,24.59
2022-08-08T16:04:59.422Z,24.63
2022-08-08T16:07:39.268Z,24.64
2022-08-08T16:13:21.466Z,24.80
2022-08-08T16:13:26.758Z,24.64
2022-08-08T16:15:58.544Z,24.58
2022-08-08T16:18:30.266Z,24.62
2022-08-08T16:21:00.176Z,24.67
2022-08-08T16:23:32.116Z,24.67
2022-08-08T16:26:04.071Z,24.68
2022-08-08T16:28:35.919Z,24.83
2022-08-08T16:31:07.451Z,24.83
2022-08-08T16:33:39.277Z,24.70
2022-08-08T16:36:15.740Z,24.73
2022-08-08T16:38:47.211Z,24.81
2022-08-08T16:41:20.373Z,25.01
2022-08-08T16:43:51.186Z,24.99
2022-08-08T16:46:43.974Z,24.99
2022-08-08T16:49:07.968Z,24.94
2022-08-08T16:55:14.033Z,24.94
2022-08-08T16:55:20.754Z,24.88
2022-08-08T16:57:27.943Z,24.86
2022-08-08T17:00:06.564Z,24.87
2022-08-08T17:02:39.724Z,24.85
2022-08-08T17:05:08.373Z,24.75
2022-08-08T17:07:37.412Z,24.70
2022-08-08T17:10:08.501Z,24.79
2022-08-08T17:12:36.889Z,24.78
2022-08-08T17:15:17.921Z,24.66
2022-08-08T17:18:02.381Z,24.63
2022-08-08T17:20:31.384Z,24.55
2022-08-08T17:23:16.492Z,24.48
2022-08-08T17:25:53.375Z,24.31
2022-08-08T17:28:34.493Z,24.32
2022-08-08T17:31:44.419Z,24.24
2022-08-08T17:34:48.603Z,24.27
2022-08-08T17:36:57.836Z,24.06
2022-08-08T17:40:02.890Z,23.59
2022-08-08T17:42:14.573Z,23.38
2022-08-08T17:44:44.349Z,23.18
2022-08-08T17:47:23.391Z,22.82
2022-08-08T17:49:52.389Z,22.63
2022-08-08T17:52:23.308Z,22.42
2022-08-08T17:54:56.092Z,22.19
2022-08-08T17:57:23.551Z,22.09
2022-08-08T17:59:51.694Z,21.99
2022-08-08T18:02:28.669Z,21.67
2022-08-08T18:04:58.807Z,21.54
2022-08-08T18:08:03.414Z,21.47
2022-08-08T18:10:15.717Z,21.37
2022-08-08T18:12:44.320Z,21.15
2022-08-08T18:15:13.580Z,21.04
2022-08-08T18:18:09.854Z,21.03
2022-08-08T18:20:36.595Z,20.86
2022-08-08T18:23:15.191Z,20.72
2022-08-08T18:25:42.939Z,20.48
2022-08-08T18:28:12.898Z,20.32
2022-08-08T18:30:40.811Z,20.27
2022-08-08T18:33:10.496Z,20.11
2022-08-08T18:35:48.823Z,19.98
2022-08-08T18:38:16.868Z,19.85
2022-08-08T18:40:45.714Z,19.69
2022-08-08T18:43:16.103Z,19.55
2022-08-08T18:46:00.937Z,19.30
2022-08-08T18:48:33.840Z,19.03
2022-08-08T18:51:01.981Z,18.87
2022-08-08T18:53:50.995Z,18.72
2022-08-08T18:56:29.897Z,18.53
2022-08-08T18:58:57.849Z,18.40
2022-08-08T19:02:25.621Z,18.28
2022-08-08T19:04:15.059Z,18.07
2022-08-08T19:06:42.056Z,17.90
2022-08-08T19:09:15.149Z,17.78
2022-08-08T19:11:46.644Z,17.66
2022-08-08T19:14:20.584Z,17.55
2022-08-08T19:16:48.055Z,17.45
2022-08-08T19:19:15.952Z,17.43
2022-08-08T19:21:49.328Z,17.34
2022-08-08T19:24:38.824Z,17.14
2022-08-08T19:27:04.009Z,16.96
2022-08-08T19:29:31.023Z,16.84
2022-08-08T19:31:57.900Z,16.69
2022-08-08T19:34:36.560Z,16.58
2022-08-08T19:37:05.798Z,16.42
2022-08-08T19:39:35.355Z,16.36
2022-08-08T19:42:06.793Z,16.19
2022-08-08T19:44:43.061Z,16.11
2022-08-08T19:47:14.108Z,16.01
2022-08-08T19:49:43.072Z,15.83
2022-08-08T19:52:13.430Z,15.78
2022-08-08T19:54:41.478Z,15.70
2022-08-08T19:57:10.073Z,15.65
2022-08-08T19:59:41.439Z,15.58
2022-08-08T20:02:10.599Z,15.51
2022-08-08T20:04:38.290Z,15.40
2022-08-08T20:08:29.589Z,15.27
2022-08-08T20:09:57.124Z,15.15
2022-08-08T20:12:32.840Z,15.10
2022-08-08T20:15:14.985Z,15.04
2022-08-08T20:17:45.632Z,14.96
2022-08-08T20:20:15.955Z,14.89
2022-08-08T20:22:48.736Z,14.78
2022-08-08T20:25:20.393Z,14.73
2022-08-08T20:27:50.398Z,14.70
2022-08-08T20:30:53.117Z,14.62
2022-08-08T20:33:19.920Z,14.57
2022-08-08T20:35:57.081Z,14.52
2022-08-08T20:38:32.234Z,14.37
2022-08-08T20:41:00.721Z,14.32
2022-08-08T20:43:43.707Z,14.25
2022-08-08T20:46:14.736Z,14.16
2022-08-08T20:48:43.297Z,14.14
2022-08-08T20:51:14.455Z,14.12
2022-08-08T20:53:58.210Z,14.07
2022-08-08T20:56:35.633Z,13.71
2022-08-08T20:59:21.257Z,13.35
2022-08-08T21:02:06.317Z,13.36
2022-08-08T21:04:35.744Z,13.38
2022-08-08T21:07:08.039Z,13.29
2022-08-08T21:10:01.354Z,13.10
2022-08-08T21:12:24.820Z,13.12
2022-08-08T21:14:59.140Z,13.02
2022-08-08T21:17:33.855Z,13.05
2022-08-08T21:20:03.918Z,13.03
2022-08-08T21:22:30.873Z,13.02
2022-08-08T21:24:58.275Z,12.93
2022-08-08T21:28:05.614Z,12.85
2022-08-08T21:30:18.878Z,12.88
2022-08-08T21:32:51.136Z,12.81
2022-08-08T21:36:14.299Z,12.77
2022-08-08T21:38:08.537Z,12.67
2022-08-08T21:40:54.807Z,12.64
2022-08-08T21:43:24.076Z,12.61
2022-08-08T21:48:06.767Z,12.48
2022-08-08T21:48:41.687Z,12.49
2022-08-08T21:51:13.342Z,12.39
2022-08-08T21:54:36.070Z,12.29
2022-08-08T21:56:36.088Z,12.36
2022-08-08T21:59:09.669Z,12.21
2022-08-08T22:01:40.365Z,12.23
2022-08-08T22:04:11.022Z,12.38
2022-08-08T22:06:40.325Z,12.38
2022-08-08T22:09:09.049Z,12.24
2022-08-08T22:11:51.257Z,12.29
2022-08-08T22:14:26.659Z,12.30
2022-08-08T22:16:54.145Z,12.10
2022-08-08T22:19:24.077Z,12.13
2022-08-08T22:21:52.904Z,12.20
2022-08-08T22:24:28.158Z,12.24
2022-08-08T22:27:01.597Z,12.12
2022-08-08T22:30:02.376Z,12.08
2022-08-08T22:32:18.807Z,12.01
2022-08-08T22:34:51.035Z,12.00
2022-08-08T22:37:49.310Z,11.89
2022-08-08T22:40:11.727Z,11.95
2022-08-08T22:42:45.723Z,12.04
2022-08-08T22:45:14.850Z,12.04
2022-08-08T22:47:47.061Z,11.83
2022-08-08T22:50:26.765Z,11.85
2022-08-08T22:54:29.281Z,11.82
2022-08-08T22:55:59.641Z,11.81
2022-08-08T22:58:34.267Z,11.73
2022-08-08T23:02:00.961Z,11.72
2022-08-08T23:03:55.799Z,11.81
2022-08-08T23:06:26.956Z,11.87
2022-08-08T23:08:59.015Z,11.68
2022-08-08T23:11:31.252Z,11.58
2022-08-08T23:14:18.548Z,11.63
2022-08-08T23:16:57.755Z,11.64
2022-08-08T23:19:27.712Z,11.61
2022-08-08T23:22:00.272Z,11.61
2022-08-08T23:24:26.936Z,11.55
2022-08-08T23:27:03.840Z,11.47
2022-08-08T23:29:31.289Z,11.48
2022-08-08T23:31:58.170Z,11.54
2022-08-08T23:34:24.836Z,11.54
2022-08-08T23:37:00.770Z,11.52
2022-08-08T23:39:42.100Z,11.45
2022-08-08T23:42:16.329Z,11.36
2022-08-08T23:44:43.038Z,11.26
2022-08-08T23:49:01.629Z,11.29
2022-08-08T23:50:02.846Z,11.27
2022-08-08T23:52:30.725Z,11.23
2022-08-08T23:55:07.417Z,11.24
2022-08-08T23:57:52.185Z,11.25
